Time;durP1;ratioP1;P1;durP2;ratioP2;P2;SDS_P1;SDS_P2;PMS_P1;PMS_P2;Temp;Humidity;BMP_temperature;BMP_pressure;BME280_temperature;BME280_humidity;BME280_pressure;Samples;Min_cycle;Max_cycle;Signal;HPM_P1;HPM_P2
2023/09/25 00:01:50;;;;;;;7.10;2.10;;;;;;;;;;5013668;28;20730;-72
2023/09/25 00:04:16;;;;;;;4.75;2.20;;;;;;;;;;4994934;28;20464;-70
2023/09/25 00:06:43;;;;;;;6.28;2.00;;;;;;;;;;5011394;28;20065;-70
2023/09/25 00:09:11;;;;;;;5.05;2.03;;;;;;;;;;5013481;28;20111;-69
2023/09/25 00:11:37;;;;;;;8.90;2.03;;;;;;;;;;5019926;28;20057;-71
2023/09/25 00:14:02;;;;;;;5.30;2.13;;;;;;;;;;5010133;28;20517;-69
2023/09/25 00:16:28;;;;;;;5.85;2.13;;;;;;;;;;5014787;28;21261;-69
2023/09/25 00:18:54;;;;;;;6.70;2.30;;;;;;;;;;5012825;28;20075;-70
2023/09/25 00:21:20;;;;;;;4.78;2.00;;;;;;;;;;5010661;28;20374;-69
2023/09/25 00:23:46;;;;;;;4.65;1.77;;;;;;;;;;4989323;28;20095;-70
2023/09/25 00:26:15;;;;;;;3.88;1.90;;;;;;;;;;5005922;28;20654;-69
2023/09/25 00:28:42;;;;;;;6.53;2.10;;;;;;;;;;4993254;28;20042;-70
2023/09/25 00:31:09;;;;;;;6.50;2.20;;;;;;;;;;5009735;28;20064;-70
2023/09/25 00:33:35;;;;;;;6.43;2.50;;;;;;;;;;5015648;28;20083;-69
2023/09/25 00:36:01;;;;;;;5.43;2.00;;;;;;;;;;5010599;28;20051;-70
2023/09/25 00:38:27;;;;;;;7.47;2.40;;;;;;;;;;5009603;28;20053;-69
2023/09/25 00:40:53;;;;;;;4.22;2.00;;;;;;;;;;4992019;28;20065;-69
2023/09/25 00:43:19;;;;;;;6.50;2.00;;;;;;;;;;5001596;28;20049;-70
2023/09/25 00:45:47;;;;;;;8.45;2.50;;;;;;;;;;5003328;28;20053;-70
2023/09/25 00:48:28;;;;;;;4.35;2.28;;;;;;;;;;5011990;28;20149;-71
2023/09/25 00:50:57;;;;;;;11.27;2.20;;;;;;;;;;5013892;28;20048;-70
2023/09/25 00:53:26;;;;;;;4.72;2.30;;;;;;;;;;5008830;28;20053;-71
2023/09/25 00:55:53;;;;;;;7.38;2.20;;;;;;;;;;5009518;28;21010;-69
2023/09/25 00:58:20;;;;;;;4.55;2.00;;;;;;;;;;5011423;28;20053;-70
2023/09/25 01:00:46;;;;;;;6.25;2.63;;;;;;;;;;5010659;28;20107;-69
2023/09/25 01:03:13;;;;;;;5.95;2.35;;;;;;;;;;5002104;28;20111;-70
2023/09/25 01:05:40;;;;;;;6.85;2.65;;;;;;;;;;5006506;28;20569;-69
2023/09/25 01:08:07;;;;;;;7.13;2.70;;;;;;;;;;5015243;28;20701;-69
2023/09/25 01:10:34;;;;;;;6.95;2.58;;;;;;;;;;5005651;28;20072;-70
2023/09/25 01:13:01;;;;;;;4.72;2.22;;;;;;;;;;5021679;28;20358;-70
2023/09/25 01:15:27;;;;;;;3.50;2.30;;;;;;;;;;5025872;28;20490;-69
2023/09/25 01:17:53;;;;;;;5.53;2.35;;;;;;;;;;5022535;28;20045;-69
2023/09/25 01:20:22;;;;;;;5.88;2.92;;;;;;;;;;5023998;28;20052;-70
2023/09/25 01:22:49;;;;;;;4.93;2.60;;;;;;;;;;5015598;28;20137;-68
2023/09/25 01:25:16;;;;;;;6.50;2.30;;;;;;;;;;5013194;28;20065;-70
2023/09/25 01:27:44;;;;;;;6.57;2.33;;;;;;;;;;5022514;28;20042;-69
2023/09/25 01:30:13;;;;;;;5.75;2.33;;;;;;;;;;5021984;28;20057;-70
2023/09/25 01:32:40;;;;;;;4.65;2.10;;;;;;;;;;5024732;28;20037;-70
2023/09/25 01:35:10;;;;;;;5.50;2.75;;;;;;;;;;5021766;28;20053;-69
2023/09/25 01:37:37;;;;;;;6.70;2.83;;;;;;;;;;5013562;28;20486;-71
2023/09/25 01:40:05;;;;;;;5.07;2.67;;;;;;;;;;5020576;28;20057;-70
2023/09/25 01:42:31;;;;;;;7.43;2.92;;;;;;;;;;5025120;28;20152;-69
2023/09/25 01:44:58;;;;;;;5.55;2.55;;;;;;;;;;5022886;28;20057;-69
2023/09/25 01:47:24;;;;;;;7.00;2.65;;;;;;;;;;5007904;28;20180;-69
2023/09/25 01:49:50;;;;;;;5.78;2.85;;;;;;;;;;5005653;28;20053;-69
2023/09/25 01:52:17;;;;;;;7.47;2.72;;;;;;;;;;5016176;28;20050;-70
2023/09/25 01:54:43;;;;;;;5.20;2.70;;;;;;;;;;5002270;28;20041;-69
2023/09/25 01:57:09;;;;;;;9.25;3.15;;;;;;;;;;5006500;28;20050;-71
2023/09/25 01:59:35;;;;;;;5.85;2.92;;;;;;;;;;5019763;28;20269;-70
2023/09/25 02:02:01;;;;;;;6.20;2.88;;;;;;;;;;5020878;28;20505;-69
2023/09/25 02:04:28;;;;;;;7.93;2.70;;;;;;;;;;5014153;28;20054;-70
2023/09/25 02:06:55;;;;;;;6.95;3.20;;;;;;;;;;5007845;28;20053;-70
2023/09/25 02:09:21;;;;;;;5.68;2.50;;;;;;;;;;5004555;28;20050;-69
2023/09/25 02:11:47;;;;;;;5.55;2.67;;;;;;;;;;5024199;28;20120;-69
2023/09/25 02:14:13;;;;;;;6.90;3.03;;;;;;;;;;5017896;28;20055;-70
2023/09/25 02:16:39;;;;;;;8.35;2.70;;;;;;;;;;5021319;28;20046;-69
2023/09/25 02:19:07;;;;;;;4.88;2.50;;;;;;;;;;5021819;28;20156;-69
2023/09/25 02:21:33;;;;;;;8.10;2.33;;;;;;;;;;5018288;28;20514;-69
2023/09/25 02:23:59;;;;;;;4.25;2.50;;;;;;;;;;5020366;28;20064;-70
2023/09/25 02:26:25;;;;;;;7.30;2.28;;;;;;;;;;5012388;28;20482;-70
2023/09/25 02:28:51;;;;;;;7.20;2.58;;;;;;;;;;5018589;28;20046;-70
2023/09/25 02:31:17;;;;;;;6.97;2.25;;;;;;;;;;5019093;28;20115;-69
2023/09/25 02:33:45;;;;;;;12.57;2.78;;;;;;;;;;5018657;28;20158;-70
2023/09/25 02:36:12;;;;;;;6.75;2.45;;;;;;;;;;5018113;28;20111;-70
2023/09/25 02:38:38;;;;;;;6.20;2.55;;;;;;;;;;5026211;28;20060;-69
2023/09/25 02:41:04;;;;;;;6.18;2.50;;;;;;;;;;5025753;28;20057;-69
2023/09/25 02:43:33;;;;;;;4.65;2.28;;;;;;;;;;5011561;28;20065;-69
2023/09/25 02:45:59;;;;;;;4.95;2.67;;;;;;;;;;5025070;28;20409;-70
2023/09/25 02:48:26;;;;;;;5.03;2.30;;;;;;;;;;5021208;28;20053;-69
2023/09/25 02:50:51;;;;;;;6.53;2.35;;;;;;;;;;5028193;28;20139;-69
2023/09/25 02:53:17;;;;;;;6.80;2.30;;;;;;;;;;5026548;28;20057;-69
2023/09/25 02:55:49;;;;;;;5.63;2.20;;;;;;;;;;5026956;28;20094;-71
2023/09/25 02:58:16;;;;;;;7.03;2.20;;;;;;;;;;5018512;28;20509;-68
2023/09/25 03:00:41;;;;;;;8.57;2.45;;;;;;;;;;5019921;28;20088;-72
2023/09/25 03:03:07;;;;;;;4.18;2.40;;;;;;;;;;5010855;28;20398;-68
2023/09/25 03:05:33;;;;;;;5.47;2.30;;;;;;;;;;5021860;28;20056;-70
2023/09/25 03:08:00;;;;;;;5.13;2.38;;;;;;;;;;5020554;28;21033;-69
2023/09/25 03:10:26;;;;;;;7.65;2.45;;;;;;;;;;5019736;28;20467;-70
2023/09/25 03:12:52;;;;;;;6.97;2.55;;;;;;;;;;5019520;28;20061;-72
2023/09/25 03:15:18;;;;;;;9.52;2.67;;;;;;;;;;5021975;28;20413;-69
2023/09/25 03:17:46;;;;;;;4.20;2.30;;;;;;;;;;5006052;28;20053;-70
2023/09/25 03:20:16;;;;;;;5.18;2.50;;;;;;;;;;5005230;28;21225;-69
2023/09/25 03:22:43;;;;;;;5.88;2.53;;;;;;;;;;5011509;28;20282;-70
2023/09/25 03:25:10;;;;;;;5.10;2.40;;;;;;;;;;5021322;28;20084;-70
2023/09/25 03:27:37;;;;;;;6.43;2.45;;;;;;;;;;5000460;28;20076;-69
2023/09/25 03:30:05;;;;;;;8.13;2.55;;;;;;;;;;5007425;28;20057;-70
2023/09/25 03:32:31;;;;;;;8.45;2.63;;;;;;;;;;5003361;28;20057;-69
2023/09/25 03:34:57;;;;;;;4.88;2.30;;;;;;;;;;5021296;28;20133;-68
2023/09/25 03:37:23;;;;;;;8.55;2.58;;;;;;;;;;5018885;28;20042;-70
2023/09/25 03:39:53;;;;;;;7.70;2.60;;;;;;;;;;5013685;28;20049;-69
2023/09/25 03:42:19;;;;;;;8.35;2.85;;;;;;;;;;5015878;28;20049;-70
2023/09/25 03:44:45;;;;;;;7.28;3.05;;;;;;;;;;5019242;28;20042;-69
2023/09/25 03:47:13;;;;;;;7.72;3.10;;;;;;;;;;5002705;28;20564;-69
2023/09/25 03:49:39;;;;;;;5.65;2.88;;;;;;;;;;4997685;28;20054;-70
2023/09/25 03:52:05;;;;;;;6.43;2.72;;;;;;;;;;5019170;28;20061;-70
2023/09/25 03:54:31;;;;;;;12.85;3.03;;;;;;;;;;5006162;28;20045;-70
2023/09/25 03:56:58;;;;;;;6.97;2.83;;;;;;;;;;5003554;28;20046;-69
2023/09/25 03:59:23;;;;;;;9.23;3.00;;;;;;;;;;5012117;28;20410;-69
2023/09/25 04:01:53;;;;;;;7.05;2.97;;;;;;;;;;4995274;28;20479;-70
2023/09/25 04:04:18;;;;;;;9.63;2.85;;;;;;;;;;5026154;28;20052;-69
2023/09/25 04:06:44;;;;;;;9.05;3.50;;;;;;;;;;5005015;28;20048;-69
2023/09/25 04:09:10;;;;;;;6.03;2.92;;;;;;;;;;5002839;28;20438;-69
2023/09/25 04:11:36;;;;;;;10.63;3.30;;;;;;;;;;5017601;28;20041;-70
2023/09/25 04:14:02;;;;;;;6.35;3.08;;;;;;;;;;5029891;28;20421;-69
2023/09/25 04:16:33;;;;;;;12.23;3.10;;;;;;;;;;5019798;28;20088;-71
2023/09/25 04:18:59;;;;;;;10.13;3.45;;;;;;;;;;5025500;28;20107;-71
2023/09/25 04:21:25;;;;;;;7.63;2.70;;;;;;;;;;4999239;28;20561;-69
2023/09/25 04:23:51;;;;;;;5.78;2.83;;;;;;;;;;5021526;28;20057;-70
2023/09/25 04:26:17;;;;;;;8.57;2.65;;;;;;;;;;5025442;28;20048;-69
2023/09/25 04:28:43;;;;;;;8.65;3.63;;;;;;;;;;5025438;28;20046;-71
2023/09/25 04:31:10;;;;;;;11.20;2.88;;;;;;;;;;5028326;28;20068;-69
2023/09/25 04:33:38;;;;;;;6.00;2.88;;;;;;;;;;5009386;28;20394;-69
2023/09/25 04:36:10;;;;;;;14.32;3.13;;;;;;;;;;5023257;28;20128;-70
2023/09/25 04:38:36;;;;;;;9.70;3.00;;;;;;;;;;5007581;28;20046;-71
2023/09/25 04:41:05;;;;;;;9.80;2.90;;;;;;;;;;5003605;28;20110;-69
2023/09/25 04:43:32;;;;;;;4.70;2.85;;;;;;;;;;5016336;28;22018;-71
2023/09/25 04:45:58;;;;;;;7.75;3.47;;;;;;;;;;5020611;28;20481;-71
2023/09/25 04:48:29;;;;;;;12.43;3.72;;;;;;;;;;5019439;28;20091;-71
2023/09/25 04:50:57;;;;;;;7.65;2.95;;;;;;;;;;5019928;28;20080;-70
2023/09/25 04:53:22;;;;;;;7.88;2.90;;;;;;;;;;5024814;28;20075;-69
2023/09/25 04:55:48;;;;;;;10.18;3.10;;;;;;;;;;5024671;28;20042;-69
2023/09/25 04:58:14;;;;;;;7.97;3.40;;;;;;;;;;5016925;28;20056;-69
2023/09/25 05:01:21;;;;;;;8.32;3.80;;;;;;;;;;5015888;28;20056;-70
2023/09/25 05:05:01;;;;;;;8.35;2.90;;;;;;;;;;5016413;28;20760;-69
2023/09/25 05:08:41;;;;;;;11.50;3.17;;;;;;;;;;5020038;28;20147;-70
2023/09/25 05:12:22;;;;;;;9.85;3.33;;;;;;;;;;5018848;28;20091;-70
2023/09/25 05:16:02;;;;;;;10.68;3.30;;;;;;;;;;5019424;28;20614;-69
2023/09/25 05:19:43;;;;;;;7.80;3.70;;;;;;;;;;5013554;28;20083;-68
2023/09/25 05:23:04;;;;;;;9.20;3.28;;;;;;;;;;5020067;28;20037;-71
2023/09/25 05:26:18;;;;;;;11.68;4.00;;;;;;;;;;5020533;28;20450;-70
2023/09/25 05:29:19;;;;;;;15.73;4.55;;;;;;;;;;5018526;28;20181;-69
2023/09/25 05:31:46;;;;;;;14.95;4.18;;;;;;;;;;5020640;28;20069;-70
2023/09/25 05:34:12;;;;;;;16.60;4.72;;;;;;;;;;5018801;28;20049;-69
2023/09/25 05:36:40;;;;;;;11.30;4.30;;;;;;;;;;4995829;28;20149;-74
2023/09/25 05:39:08;;;;;;;10.90;3.88;;;;;;;;;;5019346;28;20112;-74
2023/09/25 05:41:35;;;;;;;19.48;4.03;;;;;;;;;;5008844;28;20341;-73
2023/09/25 05:44:01;;;;;;;18.67;5.00;;;;;;;;;;5021330;28;20133;-74
2023/09/25 05:46:28;;;;;;;19.20;4.20;;;;;;;;;;5019761;28;20074;-74
2023/09/25 05:48:57;;;;;;;20.95;3.88;;;;;;;;;;5008321;28;20550;-76
2023/09/25 05:51:23;;;;;;;10.48;3.58;;;;;;;;;;5017617;28;20602;-75
2023/09/25 05:53:50;;;;;;;16.63;4.07;;;;;;;;;;5024144;28;20037;-75
2023/09/25 05:56:16;;;;;;;12.40;4.07;;;;;;;;;;5022852;28;20049;-74
2023/09/25 05:58:43;;;;;;;18.60;4.00;;;;;;;;;;5016362;28;20129;-74
2023/09/25 06:01:09;;;;;;;11.10;4.18;;;;;;;;;;5025072;28;20053;-75
2023/09/25 06:03:35;;;;;;;14.48;4.32;;;;;;;;;;5014492;28;20064;-72
2023/09/25 06:06:01;;;;;;;15.43;5.00;;;;;;;;;;5015531;28;20049;-74
2023/09/25 06:08:27;;;;;;;19.63;5.93;;;;;;;;;;5013220;28;20355;-72
2023/09/25 06:11:40;;;;;;;13.85;5.85;;;;;;;;;;5003046;28;20053;-73
2023/09/25 06:15:23;;;;;;;16.65;6.32;;;;;;;;;;5013598;28;20244;-71
2023/09/25 06:19:01;;;;;;;17.98;6.63;;;;;;;;;;5016491;28;20123;-74
2023/09/25 06:22:43;;;;;;;16.13;6.35;;;;;;;;;;5012916;28;20053;-71
2023/09/25 06:26:21;;;;;;;18.58;6.45;;;;;;;;;;5014323;28;20053;-70
2023/09/25 06:30:02;;;;;;;24.90;7.68;;;;;;;;;;5019855;28;20397;-70
2023/09/25 06:33:42;;;;;;;20.25;6.50;;;;;;;;;;5024007;28;20265;-73
2023/09/25 06:37:22;;;;;;;15.25;5.53;;;;;;;;;;5017268;28;20124;-73
2023/09/25 06:41:03;;;;;;;12.75;5.03;;;;;;;;;;5026021;28;20041;-77
2023/09/25 06:44:45;;;;;;;15.80;5.80;;;;;;;;;;5012568;28;20046;-72
2023/09/25 06:48:26;;;;;;;14.10;5.25;;;;;;;;;;5011855;28;20061;-72
2023/09/25 06:52:06;;;;;;;19.55;5.90;;;;;;;;;;5020747;28;20057;-73
2023/09/25 06:55:46;;;;;;;14.88;4.43;;;;;;;;;;5017553;28;20092;-74
2023/09/25 06:59:27;;;;;;;13.30;5.35;;;;;;;;;;5022227;28;20053;-73
2023/09/25 07:03:07;;;;;;;17.88;4.90;;;;;;;;;;5014845;28;20375;-74
2023/09/25 07:06:47;;;;;;;15.35;5.15;;;;;;;;;;5023806;28;20123;-79
2023/09/25 07:10:30;;;;;;;14.07;5.03;;;;;;;;;;5030216;28;20046;-78
2023/09/25 07:14:09;;;;;;;13.75;5.60;;;;;;;;;;5030656;28;20049;-72
2023/09/25 07:17:49;;;;;;;10.48;4.82;;;;;;;;;;5010532;28;20394;-71
2023/09/25 07:21:33;;;;;;;14.43;4.40;;;;;;;;;;5013839;28;20051;-74
2023/09/25 07:25:13;;;;;;;24.13;5.43;;;;;;;;;;5025071;28;20042;-74
2023/09/25 07:28:55;;;;;;;20.80;5.72;;;;;;;;;;5018551;28;20111;-72
2023/09/25 07:32:35;;;;;;;20.20;4.03;;;;;;;;;;5022422;28;20060;-73
2023/09/25 07:36:19;;;;;;;11.35;3.80;;;;;;;;;;5026730;28;20455;-77
2023/09/25 07:39:56;;;;;;;13.85;3.95;;;;;;;;;;5033803;28;20128;-74
2023/09/25 07:43:37;;;;;;;11.10;4.30;;;;;;;;;;5026329;28;20052;-73
2023/09/25 07:47:18;;;;;;;13.00;4.50;;;;;;;;;;5029402;28;20061;-75
2023/09/25 07:51:00;;;;;;;11.35;4.40;;;;;;;;;;5028590;28;20049;-74
2023/09/25 07:54:41;;;;;;;13.45;3.75;;;;;;;;;;5022595;28;20049;-74
2023/09/25 07:58:20;;;;;;;10.30;3.65;;;;;;;;;;5023625;28;20076;-71
2023/09/25 08:02:01;;;;;;;13.93;3.53;;;;;;;;;;5024087;28;20056;-74
2023/09/25 08:05:41;;;;;;;10.02;3.70;;;;;;;;;;5022072;28;20037;-72
2023/09/25 08:09:22;;;;;;;14.57;4.25;;;;;;;;;;5019317;28;20045;-73
2023/09/25 08:13:04;;;;;;;8.32;3.58;;;;;;;;;;5022641;28;20266;-76
2023/09/25 08:16:44;;;;;;;15.80;4.43;;;;;;;;;;5024729;28;20134;-75
2023/09/25 08:20:26;;;;;;;10.45;3.83;;;;;;;;;;5028622;28;20104;-75
2023/09/25 08:24:05;;;;;;;11.23;3.90;;;;;;;;;;5020389;28;20050;-73
2023/09/25 08:27:46;;;;;;;16.67;4.40;;;;;;;;;;5019999;28;20452;-74
2023/09/25 08:31:26;;;;;;;15.07;4.00;;;;;;;;;;5030676;28;20136;-73
2023/09/25 08:35:07;;;;;;;11.40;3.78;;;;;;;;;;5025722;28;20048;-72
2023/09/25 08:38:47;;;;;;;10.77;3.33;;;;;;;;;;5028027;28;20050;-74
2023/09/25 08:42:28;;;;;;;8.50;3.08;;;;;;;;;;5023022;28;20080;-73
2023/09/25 08:46:08;;;;;;;11.45;3.40;;;;;;;;;;5026949;28;20541;-74
2023/09/25 08:49:49;;;;;;;9.35;2.90;;;;;;;;;;5020487;28;20762;-74
2023/09/25 08:53:29;;;;;;;8.80;2.80;;;;;;;;;;5030843;28;20045;-74
2023/09/25 08:57:09;;;;;;;9.13;2.90;;;;;;;;;;5025680;28;21709;-74
2023/09/25 09:00:50;;;;;;;9.38;3.40;;;;;;;;;;5025211;28;20061;-73
2023/09/25 09:04:30;;;;;;;9.77;3.00;;;;;;;;;;5025394;28;20140;-73
2023/09/25 09:08:16;;;;;;;10.77;2.67;;;;;;;;;;5025156;28;20053;-74
2023/09/25 09:11:57;;;;;;;10.18;2.72;;;;;;;;;;5023146;28;20037;-73
2023/09/25 09:15:43;;;;;;;9.07;3.00;;;;;;;;;;5018810;28;20045;-75
2023/09/25 09:19:06;;;;;;;;;;;;;;;;;;5018449;28;20279;-74
2023/09/25 09:22:45;;;;;;;9.80;2.95;;;;;;;;;;5023443;28;19948;-74
2023/09/25 09:26:25;;;;;;;8.40;2.42;;;;;;;;;;5022743;28;21840;-73
2023/09/25 09:30:06;;;;;;;12.07;3.10;;;;;;;;;;5017596;28;20111;-73
2023/09/25 09:33:50;;;;;;;7.63;2.63;;;;;;;;;;5023316;28;20069;-73
2023/09/25 09:37:29;;;;;;;9.85;2.70;;;;;;;;;;5024153;28;20037;-73
2023/09/25 09:41:13;;;;;;;9.10;2.80;;;;;;;;;;5027170;28;20124;-73
2023/09/25 09:44:52;;;;;;;8.82;2.63;;;;;;;;;;5014507;28;20681;-72
2023/09/25 09:48:35;;;;;;;12.27;3.05;;;;;;;;;;5019649;28;20497;-73
2023/09/25 09:52:17;;;;;;;7.75;3.13;;;;;;;;;;5024435;28;20041;-73
2023/09/25 09:55:56;;;;;;;8.18;2.70;;;;;;;;;;5015419;28;20054;-73
2023/09/25 09:59:36;;;;;;;13.75;6.88;;;;;;;;;;5026334;28;20038;-75
2023/09/25 10:02:38;;;;;;;10.18;2.45;;;;;;;;;;5006854;28;20042;-73
2023/09/25 10:05:10;;;;;;;7.40;2.70;;;;;;;;;;5016148;28;20826;-73
2023/09/25 10:08:11;;;;;;;7.75;2.83;;;;;;;;;;5022336;28;20502;-73
2023/09/25 10:10:43;;;;;;;5.78;2.33;;;;;;;;;;5010463;28;20497;-74
2023/09/25 10:13:21;;;;;;;8.80;2.35;;;;;;;;;;5026750;28;20076;-72
2023/09/25 10:15:59;;;;;;;8.65;2.70;;;;;;;;;;5026871;28;20444;-73
2023/09/25 10:18:31;;;;;;;6.15;2.55;;;;;;;;;;5022769;28;20045;-73
2023/09/25 10:21:11;;;;;;;5.75;2.45;;;;;;;;;;5025377;28;20477;-73
2023/09/25 10:23:45;;;;;;;7.57;2.30;;;;;;;;;;5025341;28;20259;-76
2023/09/25 10:26:24;;;;;;;10.15;2.63;;;;;;;;;;5026174;28;20045;-75
2023/09/25 10:29:12;;;;;;;6.50;2.40;;;;;;;;;;5017751;28;20417;-74
2023/09/25 10:31:44;;;;;;;7.47;2.25;;;;;;;;;;5023813;28;20061;-74
2023/09/25 10:34:10;;;;;;;8.15;2.53;;;;;;;;;;5024488;28;20053;-73
2023/09/25 10:36:38;;;;;;;7.35;2.50;;;;;;;;;;5023835;28;20061;-75
2023/09/25 10:39:13;;;;;;;9.10;2.40;;;;;;;;;;5022617;28;20076;-73
2023/09/25 10:41:41;;;;;;;9.50;2.67;;;;;;;;;;5022940;28;20049;-73
2023/09/25 10:44:09;;;;;;;9.15;2.90;;;;;;;;;;5026987;28;20092;-73
2023/09/25 10:46:35;;;;;;;10.40;3.00;;;;;;;;;;5021811;28;20043;-73
2023/09/25 10:49:01;;;;;;;6.00;2.38;;;;;;;;;;5027755;28;20041;-75
2023/09/25 10:51:29;;;;;;;8.40;2.50;;;;;;;;;;5027651;28;20103;-73
2023/09/25 10:54:00;;;;;;;5.50;2.30;;;;;;;;;;5026180;28;20460;-73
2023/09/25 10:56:27;;;;;;;10.90;2.53;;;;;;;;;;5021187;28;20589;-73
2023/09/25 10:58:53;;;;;;;9.20;2.28;;;;;;;;;;5019135;28;20044;-74
2023/09/25 11:01:37;;;;;;;5.72;2.20;;;;;;;;;;5028116;28;20057;-73
2023/09/25 11:04:03;;;;;;;5.65;2.17;;;;;;;;;;5019027;28;20050;-77
2023/09/25 11:06:30;;;;;;;8.02;2.10;;;;;;;;;;5018754;28;20375;-75
2023/09/25 11:09:25;;;;;;;6.35;2.28;;;;;;;;;;5018102;28;20412;-74
2023/09/25 11:11:54;;;;;;;7.05;2.40;;;;;;;;;;5014093;28;20046;-75
2023/09/25 11:14:20;;;;;;;10.80;2.72;;;;;;;;;;5025065;28;20096;-75
2023/09/25 11:16:49;;;;;;;6.18;2.10;;;;;;;;;;5025743;28;20365;-75
2023/09/25 11:19:16;;;;;;;8.80;1.88;;;;;;;;;;5021436;28;20088;-73
2023/09/25 11:21:47;;;;;;;6.60;1.95;;;;;;;;;;5008945;28;20087;-75
2023/09/25 11:24:13;;;;;;;7.10;1.95;;;;;;;;;;5026395;28;20100;-74
2023/09/25 11:26:42;;;;;;;4.13;2.08;;;;;;;;;;5026367;28;20058;-73
2023/09/25 11:29:10;;;;;;;9.75;2.20;;;;;;;;;;5005341;28;20054;-74
2023/09/25 11:31:38;;;;;;;18.10;9.85;;;;;;;;;;5021763;28;20072;-73
2023/09/25 11:34:08;;;;;;;9.05;3.40;;;;;;;;;;5024307;28;20049;-70
2023/09/25 11:36:36;;;;;;;9.20;1.98;;;;;;;;;;5025773;28;20058;-73
2023/09/25 11:39:13;;;;;;;3.40;1.90;;;;;;;;;;5024986;28;20045;-74
2023/09/25 11:41:40;;;;;;;6.65;1.73;;;;;;;;;;5024039;28;20575;-72
2023/09/25 11:44:06;;;;;;;4.57;1.98;;;;;;;;;;5016059;28;20054;-72
2023/09/25 11:46:33;;;;;;;8.73;2.08;;;;;;;;;;5016046;28;20058;-74
2023/09/25 11:49:00;;;;;;;5.25;2.10;;;;;;;;;;5018398;28;20052;-72
2023/09/25 11:51:26;;;;;;;4.38;1.70;;;;;;;;;;5023744;28;20053;-74
2023/09/25 11:53:52;;;;;;;3.50;1.80;;;;;;;;;;5026455;28;20116;-73
2023/09/25 11:56:18;;;;;;;5.72;2.05;;;;;;;;;;5001983;28;20049;-73
2023/09/25 11:58:44;;;;;;;5.93;1.80;;;;;;;;;;5025001;28;20258;-72
2023/09/25 12:01:12;;;;;;;5.03;1.90;;;;;;;;;;5004087;28;20054;-73
2023/09/25 12:03:38;;;;;;;8.68;2.30;;;;;;;;;;5022217;28;20049;-73
2023/09/25 12:06:05;;;;;;;4.03;2.00;;;;;;;;;;5027066;28;20121;-74
2023/09/25 12:08:32;;;;;;;6.32;1.90;;;;;;;;;;5011155;28;20061;-73
2023/09/25 12:10:59;;;;;;;5.03;1.88;;;;;;;;;;5023068;28;20565;-73
2023/09/25 12:13:25;;;;;;;5.38;2.22;;;;;;;;;;5024901;28;20050;-75
2023/09/25 12:15:52;;;;;;;10.43;2.50;;;;;;;;;;5021124;28;20049;-72
2023/09/25 12:18:17;;;;;;;7.68;2.45;;;;;;;;;;5025982;28;20139;-74
2023/09/25 12:20:44;;;;;;;4.13;1.90;;;;;;;;;;5025643;28;20263;-74
2023/09/25 12:23:11;;;;;;;5.57;1.67;;;;;;;;;;5004385;28;20235;-74
2023/09/25 12:25:38;;;;;;;5.18;1.83;;;;;;;;;;5028085;28;20187;-73
2023/09/25 12:28:04;;;;;;;3.40;1.70;;;;;;;;;;5028148;28;20053;-72
2023/09/25 12:30:31;;;;;;;6.45;2.42;;;;;;;;;;5031090;28;20493;-75
2023/09/25 12:32:57;;;;;;;3.42;1.50;;;;;;;;;;5028431;28;20452;-74
2023/09/25 12:35:24;;;;;;;4.82;1.65;;;;;;;;;;5027269;28;20049;-73
2023/09/25 12:37:52;;;;;;;5.75;1.85;;;;;;;;;;5027236;28;20052;-74
2023/09/25 12:40:19;;;;;;;4.20;1.52;;;;;;;;;;5012041;28;20053;-72
2023/09/25 12:42:47;;;;;;;5.93;1.50;;;;;;;;;;5033377;28;20103;-72
2023/09/25 12:45:15;;;;;;;4.07;1.52;;;;;;;;;;5012270;28;20888;-74
2023/09/25 12:47:41;;;;;;;2.70;1.50;;;;;;;;;;5015232;28;20073;-75
2023/09/25 12:50:07;;;;;;;3.13;1.60;;;;;;;;;;5008468;28;20062;-75
2023/09/25 12:52:33;;;;;;;7.80;1.58;;;;;;;;;;5017313;28;20113;-76
2023/09/25 12:55:01;;;;;;;5.75;1.48;;;;;;;;;;5004236;28;20473;-73
2023/09/25 12:57:30;;;;;;;3.58;1.40;;;;;;;;;;5010929;28;20132;-75
2023/09/25 12:59:57;;;;;;;3.08;1.30;;;;;;;;;;5011115;28;20048;-75
2023/09/25 13:02:23;;;;;;;3.53;1.45;;;;;;;;;;5008349;28;20140;-73
2023/09/25 13:04:50;;;;;;;3.50;1.40;;;;;;;;;;5006469;28;20046;-75
2023/09/25 13:07:16;;;;;;;3.33;1.50;;;;;;;;;;5013221;28;20522;-74
2023/09/25 13:09:43;;;;;;;3.75;1.60;;;;;;;;;;5011197;28;20056;-75
2023/09/25 13:12:09;;;;;;;6.63;1.67;;;;;;;;;;5007019;28;20058;-74
2023/09/25 13:14:35;;;;;;;3.83;1.30;;;;;;;;;;5006581;28;20104;-72
2023/09/25 13:17:01;;;;;;;4.93;1.65;;;;;;;;;;5008916;28;20057;-72
2023/09/25 13:19:29;;;;;;;2.08;1.17;;;;;;;;;;5005813;28;20053;-75
2023/09/25 13:21:56;;;;;;;3.03;1.70;;;;;;;;;;5015251;28;20049;-74
2023/09/25 13:24:22;;;;;;;5.90;1.70;;;;;;;;;;5007208;28;20053;-73
2023/09/25 13:26:48;;;;;;;6.85;1.50;;;;;;;;;;5015369;28;20141;-74
2023/09/25 13:29:14;;;;;;;15.52;2.22;;;;;;;;;;5001563;28;20430;-75
2023/09/25 13:31:40;;;;;;;4.13;1.30;;;;;;;;;;5004581;28;20058;-74
2023/09/25 13:34:11;;;;;;;6.38;1.50;;;;;;;;;;5008340;28;20344;-75
2023/09/25 13:36:36;;;;;;;8.00;1.40;;;;;;;;;;5010720;28;20057;-75
2023/09/25 13:39:05;;;;;;;5.57;1.52;;;;;;;;;;5009557;28;20577;-75
2023/09/25 13:41:31;;;;;;;2.15;1.20;;;;;;;;;;5007355;28;20057;-74
2023/09/25 13:43:57;;;;;;;4.32;1.60;;;;;;;;;;5005104;28;20100;-73
2023/09/25 13:46:24;;;;;;;4.35;1.60;;;;;;;;;;4999713;28;20042;-75
2023/09/25 13:48:51;;;;;;;3.47;1.17;;;;;;;;;;5003933;28;20046;-74
2023/09/25 13:51:17;;;;;;;6.80;1.45;;;;;;;;;;5004237;28;20046;-76
2023/09/25 13:53:43;;;;;;;3.08;1.40;;;;;;;;;;5008497;28;20112;-76
2023/09/25 13:56:09;;;;;;;3.10;1.08;;;;;;;;;;5008138;28;20203;-76
2023/09/25 13:58:39;;;;;;;5.05;1.38;;;;;;;;;;5002247;28;20168;-74
2023/09/25 14:01:05;;;;;;;2.13;1.30;;;;;;;;;;5007014;28;20121;-76
2023/09/25 14:03:32;;;;;;;4.50;1.55;;;;;;;;;;5005912;28;20129;-74
2023/09/25 14:06:05;;;;;;;4.15;1.30;;;;;;;;;;5008231;28;20153;-75
2023/09/25 14:08:34;;;;;;;4.45;1.00;;;;;;;;;;5007538;28;20197;-73
2023/09/25 14:11:00;;;;;;;4.30;1.25;;;;;;;;;;5007055;28;20107;-74
2023/09/25 14:13:27;;;;;;;4.13;1.60;;;;;;;;;;5007186;28;20430;-73
2023/09/25 14:15:54;;;;;;;2.80;1.20;;;;;;;;;;5017843;28;20172;-74
2023/09/25 14:18:20;;;;;;;2.58;1.35;;;;;;;;;;5006256;28;20050;-75
2023/09/25 14:20:49;;;;;;;4.40;1.30;;;;;;;;;;4998037;28;20527;-75
2023/09/25 14:23:16;;;;;;;2.20;1.23;;;;;;;;;;5008233;28;20506;-74
2023/09/25 14:25:43;;;;;;;3.25;1.50;;;;;;;;;;5001664;28;20453;-74
2023/09/25 14:28:09;;;;;;;3.33;1.38;;;;;;;;;;4997186;28;20061;-76
2023/09/25 14:30:35;;;;;;;5.47;1.30;;;;;;;;;;5008288;28;20041;-74
2023/09/25 14:33:01;;;;;;;3.78;1.35;;;;;;;;;;5007782;28;20529;-74
2023/09/25 14:35:30;;;;;;;6.25;1.30;;;;;;;;;;4996205;28;20148;-73
2023/09/25 14:37:56;;;;;;;3.38;1.35;;;;;;;;;;5005125;28;20045;-78
2023/09/25 14:40:22;;;;;;;3.78;1.50;;;;;;;;;;5009093;28;20044;-75
2023/09/25 14:42:51;;;;;;;3.75;2.00;;;;;;;;;;4999188;28;20088;-72
2023/09/25 14:45:17;;;;;;;3.88;1.52;;;;;;;;;;5005793;28;20061;-76
2023/09/25 14:47:47;;;;;;;5.70;1.48;;;;;;;;;;4993076;28;20057;-74
2023/09/25 14:50:14;;;;;;;4.95;1.33;;;;;;;;;;5002467;28;20114;-73
2023/09/25 14:52:40;;;;;;;5.97;1.20;;;;;;;;;;4985782;28;21361;-71
2023/09/25 14:55:06;;;;;;;6.50;1.50;;;;;;;;;;4991897;28;20069;-74
2023/09/25 14:57:34;;;;;;;4.30;1.30;;;;;;;;;;5007714;28;20420;-73
2023/09/25 15:00:04;;;;;;;5.78;1.40;;;;;;;;;;5004509;28;20084;-70
2023/09/25 15:02:30;;;;;;;4.28;1.30;;;;;;;;;;4992953;28;20045;-72
2023/09/25 15:04:57;;;;;;;3.85;1.20;;;;;;;;;;4999434;28;20042;-70
2023/09/25 15:07:23;;;;;;;3.80;1.05;;;;;;;;;;5004814;28;20052;-73
2023/09/25 15:09:49;;;;;;;5.78;1.40;;;;;;;;;;5001322;28;20050;-74
2023/09/25 15:12:23;;;;;;;3.17;1.60;;;;;;;;;;4996890;28;20066;-76
2023/09/25 15:14:50;;;;;;;3.95;1.63;;;;;;;;;;4996917;28;20053;-71
2023/09/25 15:17:17;;;;;;;5.55;1.65;;;;;;;;;;4993174;28;20046;-70
2023/09/25 15:19:47;;;;;;;5.25;1.40;;;;;;;;;;4996485;28;20046;-71
2023/09/25 15:22:14;;;;;;;2.97;1.20;;;;;;;;;;4990464;28;20064;-72
2023/09/25 15:24:39;;;;;;;4.68;1.63;;;;;;;;;;4991333;28;20423;-69
2023/09/25 15:27:46;;;;;;;5.93;1.50;;;;;;;;;;4994392;28;20065;-74
2023/09/25 15:31:26;;;;;;;11.57;1.60;;;;;;;;;;4990141;28;20413;-71
2023/09/25 15:35:06;;;;;;;2.50;1.30;;;;;;;;;;4992699;28;20157;-74
2023/09/25 15:38:47;;;;;;;5.20;1.52;;;;;;;;;;4995255;28;20061;-71
2023/09/25 15:42:27;;;;;;;6.43;1.30;;;;;;;;;;4996788;28;20406;-70
2023/09/25 15:46:08;;;;;;;3.80;1.55;;;;;;;;;;4988633;28;20085;-66
2023/09/25 15:49:49;;;;;;;3.95;1.60;;;;;;;;;;5005349;28;20056;-67
2023/09/25 15:53:29;;;;;;;3.05;1.13;;;;;;;;;;5000716;28;20053;-72
2023/09/25 15:57:09;;;;;;;5.38;1.92;;;;;;;;;;4999165;28;20516;-68
2023/09/25 16:00:50;;;;;;;5.18;1.80;;;;;;;;;;5001229;28;20053;-69
2023/09/25 16:04:31;;;;;;;3.67;1.33;;;;;;;;;;4996508;28;20042;-71
2023/09/25 16:08:11;;;;;;;3.60;1.40;;;;;;;;;;5003400;28;20050;-71
2023/09/25 16:11:51;;;;;;;4.30;1.73;;;;;;;;;;5005232;28;20038;-70
2023/09/25 16:15:31;;;;;;;5.05;1.40;;;;;;;;;;5011421;28;20134;-70
2023/09/25 16:19:13;;;;;;;6.43;1.98;;;;;;;;;;5006740;28;20064;-68
2023/09/25 16:22:53;;;;;;;5.30;1.80;;;;;;;;;;4996514;28;20060;-69
2023/09/25 16:26:33;;;;;;;4.68;1.95;;;;;;;;;;5003437;28;20041;-68
2023/09/25 16:30:17;;;;;;;4.63;1.63;;;;;;;;;;5010562;28;20042;-67